createdAt,value
2018-02-02T00:00:46.260Z,99.99
2018-02-02T00:01:46.291Z,99.99
2018-02-02T00:02:46.323Z,99.99
2018-02-02T00:03:46.348Z,99.99
2018-02-02T00:04:46.377Z,99.99
2018-02-02T00:05:46.409Z,99.99
2018-02-02T00:06:46.436Z,99.99
2018-02-02T00:07:46.466Z,99.99
2018-02-02T00:08:46.511Z,99.99
2018-02-02T00:09:46.527Z,99.99
2018-02-02T00:10:46.557Z,99.99
2018-02-02T00:11:46.622Z,99.99
2018-02-02T00:12:46.611Z,99.99
2018-02-02T00:13:46.646Z,99.99
2018-02-02T00:14:46.673Z,99.99
2018-02-02T00:15:46.703Z,99.99
2018-02-02T00:16:46.733Z,99.81
2018-02-02T00:17:46.777Z,99.81
2018-02-02T00:18:46.794Z,99.43
2018-02-02T00:19:46.824Z,99.81
2018-02-02T00:20:46.851Z,99.71
2018-02-02T00:21:46.881Z,99.90
2018-02-02T00:22:46.914Z,99.99
2018-02-02T00:23:46.940Z,99.90
2018-02-02T00:24:46.970Z,99.81
2018-02-02T00:25:46.999Z,99.99
2018-02-02T00:26:47.031Z,99.99
2018-02-02T00:27:47.059Z,99.99
2018-02-02T00:28:47.090Z,99.62
2018-02-02T00:29:47.119Z,99.90
2018-02-02T00:30:47.152Z,99.81
2018-02-02T00:31:47.182Z,99.99
2018-02-02T00:32:47.205Z,99.99
2018-02-02T00:33:47.234Z,99.99
2018-02-02T00:34:47.266Z,99.99
2018-02-02T00:35:47.325Z,99.99
2018-02-02T00:36:47.323Z,99.99
2018-02-02T00:37:47.358Z,99.99
2018-02-02T00:38:47.384Z,99.99
2018-02-02T00:39:47.412Z,99.99
2018-02-02T00:40:47.441Z,99.99
2018-02-02T00:41:47.473Z,99.99
2018-02-02T00:42:47.503Z,99.99
2018-02-02T00:43:47.530Z,99.99
2018-02-02T00:44:47.561Z,99.99
2018-02-02T00:45:47.591Z,99.99
2018-02-02T00:46:47.625Z,99.99
2018-02-02T00:47:47.652Z,99.99
2018-02-02T00:48:47.679Z,99.99
2018-02-02T00:49:47.717Z,99.99
2018-02-02T00:50:47.736Z,99.99
2018-02-02T00:51:47.767Z,99.99
2018-02-02T00:52:47.815Z,99.99
2018-02-02T00:53:47.824Z,99.99
2018-02-02T00:54:47.856Z,99.99
2018-02-02T00:55:47.884Z,99.99
2018-02-02T00:56:47.915Z,99.99
2018-02-02T00:57:47.946Z,99.99
2018-02-02T00:58:47.972Z,99.99
2018-02-02T00:59:48.004Z,99.99
2018-02-02T01:00:48.032Z,99.99
2018-02-02T01:01:48.076Z,99.99
2018-02-02T01:02:48.094Z,99.99
2018-02-02T01:03:48.124Z,99.99
2018-02-02T01:04:48.154Z,99.99
2018-02-02T01:05:48.179Z,99.99
2018-02-02T01:06:48.209Z,99.99
2018-02-02T01:07:48.246Z,99.99
2018-02-02T01:08:48.269Z,99.99
2018-02-02T01:09:48.300Z,99.99
2018-02-02T01:10:48.327Z,99.99
2018-02-02T01:11:48.379Z,99.99
2018-02-02T01:12:48.385Z,99.99
2018-02-02T01:13:48.416Z,99.99
2018-02-02T01:14:48.446Z,99.99
2018-02-02T01:15:48.475Z,99.99
2018-02-02T01:16:48.505Z,99.99
2018-02-02T01:17:48.535Z,99.99
2018-02-02T01:18:48.566Z,99.99
2018-02-02T01:19:48.597Z,99.99
2018-02-02T01:20:48.620Z,99.99
2018-02-02T01:21:48.657Z,99.99
2018-02-02T01:22:48.681Z,99.99
2018-02-02T01:23:48.710Z,99.99
2018-02-02T01:24:48.739Z,99.99
2018-02-02T01:25:48.768Z,99.99
2018-02-02T01:26:48.799Z,99.99
2018-02-02T01:27:48.829Z,99.99
2018-02-02T01:28:48.911Z,99.99
2018-02-02T01:29:48.888Z,99.99
2018-02-02T01:30:48.918Z,99.99
2018-02-02T01:31:48.948Z,99.99
2018-02-02T01:32:48.976Z,99.99
2018-02-02T01:33:49.010Z,99.99
2018-02-02T01:34:49.040Z,99.99
2018-02-02T01:35:49.396Z,99.99
2018-02-02T01:36:49.092Z,99.99
2018-02-02T01:37:49.122Z,99.99
2018-02-02T01:38:49.164Z,99.99
2018-02-02T01:39:49.185Z,99.99
2018-02-02T01:40:49.211Z,99.99
2018-02-02T01:41:49.244Z,99.99
2018-02-02T01:42:49.271Z,99.99
2018-02-02T01:43:49.316Z,99.99
2018-02-02T01:44:49.329Z,99.99
2018-02-02T01:45:49.361Z,99.99
2018-02-02T01:46:49.390Z,99.99
2018-02-02T01:47:49.421Z,99.99
2018-02-02T01:48:49.452Z,99.99
2018-02-02T01:49:49.749Z,99.99
2018-02-02T01:50:49.510Z,99.99
2018-02-02T01:51:49.552Z,99.99
2018-02-02T01:52:49.565Z,99.99
2018-02-02T01:53:49.595Z,99.99
2018-02-02T01:54:49.622Z,99.99
2018-02-02T01:55:49.652Z,99.99
2018-02-02T01:56:49.681Z,99.99
2018-02-02T01:57:49.712Z,99.99
2018-02-02T01:58:49.740Z,99.99
2018-02-02T01:59:49.770Z,99.99
2018-02-02T02:00:49.800Z,99.99
2018-02-02T02:01:49.831Z,99.99
2018-02-02T02:02:49.869Z,99.99
2018-02-02T02:03:49.890Z,99.99
2018-02-02T02:04:49.926Z,99.99
2018-02-02T02:05:49.947Z,99.99
2018-02-02T02:06:49.974Z,99.99
2018-02-02T02:07:50.005Z,99.99
2018-02-02T02:08:50.034Z,99.99
2018-02-02T02:09:50.062Z,99.99
2018-02-02T02:10:50.096Z,99.99
2018-02-02T02:11:50.284Z,99.99
2018-02-02T02:12:50.153Z,99.99
2018-02-02T02:13:50.179Z,99.99
2018-02-02T02:14:50.212Z,99.99
2018-02-02T02:15:50.244Z,99.99
2018-02-02T02:16:50.270Z,99.99
2018-02-02T02:17:50.298Z,99.99
2018-02-02T02:18:50.328Z,99.99
2018-02-02T02:19:50.358Z,99.99
2018-02-02T02:20:50.386Z,99.99
2018-02-02T02:21:50.419Z,99.99
2018-02-02T02:22:50.447Z,99.99
2018-02-02T02:23:50.474Z,99.99
2018-02-02T02:24:50.505Z,99.99
2018-02-02T02:25:50.534Z,99.99
2018-02-02T02:26:50.565Z,99.99
2018-02-02T02:27:50.594Z,99.99
2018-02-02T02:28:50.639Z,99.99
2018-02-02T02:29:50.660Z,99.99
2018-02-02T02:30:50.681Z,99.99
2018-02-02T02:31:50.710Z,99.99
2018-02-02T02:32:50.741Z,99.99
2018-02-02T02:33:50.768Z,99.99
2018-02-02T02:34:50.799Z,99.99
2018-02-02T02:35:50.839Z,99.99
2018-02-02T02:36:50.906Z,99.99
2018-02-02T02:37:50.886Z,99.99
2018-02-02T02:38:50.918Z,99.99
2018-02-02T02:39:50.946Z,99.99
2018-02-02T02:40:50.977Z,99.99
2018-02-02T02:41:51.006Z,99.99
2018-02-02T02:42:51.036Z,99.99
2018-02-02T02:43:51.066Z,99.99
2018-02-02T02:44:51.092Z,99.99
2018-02-02T02:45:51.134Z,99.99
2018-02-02T02:46:51.148Z,99.99
2018-02-02T02:47:51.179Z,99.99
2018-02-02T02:48:51.207Z,99.99
2018-02-02T02:49:51.240Z,99.99
2018-02-02T02:50:51.267Z,99.99
2018-02-02T02:51:51.299Z,99.99
2018-02-02T02:52:51.325Z,99.99
2018-02-02T02:53:51.358Z,99.99
2018-02-02T02:54:51.452Z,99.99
2018-02-02T02:55:51.413Z,99.99
2018-02-02T02:56:51.445Z,99.99
2018-02-02T02:57:51.474Z,99.99
2018-02-02T02:58:51.502Z,99.99
2018-02-02T02:59:51.533Z,99.99
2018-02-02T03:00:51.561Z,99.99
2018-02-02T03:01:51.595Z,99.99
2018-02-02T03:02:51.620Z,99.99
2018-02-02T03:03:51.652Z,99.99
2018-02-02T03:04:51.680Z,99.71
2018-02-02T03:05:51.709Z,99.90
2018-02-02T03:06:51.739Z,99.81
2018-02-02T03:07:51.770Z,99.99
2018-02-02T03:08:51.798Z,99.99
2018-02-02T03:09:51.828Z,99.99
2018-02-02T03:10:51.855Z,99.99
2018-02-02T03:11:51.950Z,99.90
2018-02-02T03:12:51.912Z,99.99
2018-02-02T03:13:51.945Z,99.99
2018-02-02T03:14:51.972Z,99.99
2018-02-02T03:15:52.008Z,99.81
2018-02-02T03:16:52.032Z,99.90
2018-02-02T03:17:52.064Z,99.71
2018-02-02T03:18:52.092Z,99.99
2018-02-02T03:19:52.121Z,99.99
2018-02-02T03:20:52.150Z,99.99
2018-02-02T03:21:52.180Z,99.99
2018-02-02T03:22:52.211Z,99.99
2018-02-02T03:23:52.244Z,99.99
2018-02-02T03:24:52.266Z,99.99
2018-02-02T03:25:52.296Z,99.99
2018-02-02T03:26:52.326Z,99.99
2018-02-02T03:27:52.357Z,99.99
2018-02-02T03:28:52.406Z,99.99
2018-02-02T03:29:52.415Z,99.99
2018-02-02T03:30:52.444Z,99.99
2018-02-02T03:31:52.476Z,99.99
2018-02-02T03:32:52.504Z,99.99
2018-02-02T03:33:52.533Z,99.99
2018-02-02T03:34:52.563Z,99.99
2018-02-02T03:35:52.592Z,99.99
2018-02-02T03:36:52.637Z,99.81
2018-02-02T03:37:52.653Z,99.90
2018-02-02T03:38:52.683Z,99.62
2018-02-02T03:39:52.711Z,99.62
2018-02-02T03:40:52.826Z,99.81
2018-02-02T03:41:52.769Z,99.71
2018-02-02T03:42:52.799Z,99.33
2018-02-02T03:43:52.828Z,99.24
2018-02-02T03:44:52.857Z,99.81
2018-02-02T03:45:52.886Z,99.43
2018-02-02T03:46:52.916Z,99.90
2018-02-02T03:47:52.955Z,99.52
2018-02-02T03:48:52.975Z,99.71
2018-02-02T03:49:53.005Z,99.99
2018-02-02T03:50:53.034Z,99.90
2018-02-02T03:51:53.065Z,99.71
2018-02-02T03:52:53.096Z,99.99
2018-02-02T03:53:53.126Z,99.71
2018-02-02T03:54:53.156Z,99.66
2018-02-02T03:55:53.181Z,99.71
2018-02-02T03:56:53.210Z,99.57
2018-02-02T03:57:53.245Z,99.95
2018-02-02T03:58:53.271Z,99.85
2018-02-02T03:59:53.299Z,99.85
2018-02-02T04:00:53.326Z,99.95
2018-02-02T04:01:53.358Z,99.99
2018-02-02T04:02:53.385Z,99.99
2018-02-02T04:03:53.472Z,99.99
2018-02-02T04:04:53.508Z,99.99
2018-02-02T04:05:53.475Z,99.95
2018-02-02T04:06:53.521Z,99.38
2018-02-02T04:07:53.548Z,99.76
2018-02-02T04:08:53.562Z,99.99
2018-02-02T04:09:53.592Z,99.99
2018-02-02T04:10:53.622Z,99.99
2018-02-02T04:11:53.653Z,99.99
2018-02-02T04:12:53.681Z,99.99
2018-02-02T04:13:53.710Z,99.99
2018-02-02T04:14:53.740Z,99.99
2018-02-02T04:15:53.767Z,99.99
2018-02-02T04:16:53.949Z,99.85
2018-02-02T04:17:53.828Z,99.95
2018-02-02T04:18:53.857Z,99.99
2018-02-02T04:19:53.887Z,99.99
2018-02-02T04:20:53.914Z,99.85
2018-02-02T04:21:53.997Z,99.95
2018-02-02T04:22:53.975Z,99.76
2018-02-02T04:23:54.111Z,99.57
2018-02-02T04:24:54.033Z,99.85
2018-02-02T04:25:54.061Z,99.81
2018-02-02T04:26:54.097Z,99.05
2018-02-02T04:27:54.121Z,99.01
2018-02-02T04:28:54.472Z,99.24
2018-02-02T04:29:54.180Z,99.24
2018-02-02T04:30:54.210Z,99.62
2018-02-02T04:31:54.239Z,99.24
2018-02-02T04:32:54.265Z,99.62
2018-02-02T04:33:54.303Z,98.96
2018-02-02T04:34:54.324Z,98.96
2018-02-02T04:35:54.356Z,98.77
2018-02-02T04:36:54.385Z,98.86
2018-02-02T04:37:54.412Z,98.77
2018-02-02T04:38:54.446Z,99.43
2018-02-02T04:39:54.476Z,99.33
2018-02-02T04:40:54.826Z,98.58
2018-02-02T04:41:54.532Z,98.96
2018-02-02T04:42:54.561Z,98.49
2018-02-02T04:43:54.591Z,98.68
2018-02-02T04:44:54.622Z,98.58
2018-02-02T04:45:54.653Z,98.20
2018-02-02T04:46:54.675Z,98.49
2018-02-02T04:47:54.717Z,98.11
2018-02-02T04:48:54.735Z,98.11
2018-02-02T04:49:54.765Z,98.39
2018-02-02T04:50:54.820Z,98.01
2018-02-02T04:51:54.884Z,97.63
2018-02-02T04:52:54.854Z,97.92
2018-02-02T04:53:54.887Z,98.11
2018-02-02T04:54:54.925Z,98.11
2018-02-02T04:55:54.943Z,98.11
2018-02-02T04:56:54.975Z,97.73
2018-02-02T04:57:55.072Z,98.11
2018-02-02T04:58:55.033Z,98.20
2018-02-02T04:59:55.062Z,97.92
2018-02-02T05:00:55.103Z,98.20
2018-02-02T05:01:55.121Z,97.35
2018-02-02T05:02:55.150Z,97.16
2018-02-02T05:03:55.188Z,96.40
2018-02-02T05:04:55.324Z,96.97
2018-02-02T05:05:55.235Z,96.78
2018-02-02T05:06:55.323Z,96.59
2018-02-02T05:07:55.296Z,95.93
2018-02-02T05:08:55.328Z,96.59
2018-02-02T05:09:55.355Z,96.31
2018-02-02T05:10:55.385Z,96.12
2018-02-02T05:11:55.415Z,96.12
2018-02-02T05:12:55.444Z,96.40
2018-02-02T05:13:55.476Z,96.12
2018-02-02T05:14:55.505Z,96.31
2018-02-02T05:15:55.536Z,95.93
2018-02-02T05:16:55.563Z,96.21
2018-02-02T05:17:55.591Z,95.93
2018-02-02T05:18:55.621Z,96.50
2018-02-02T05:19:55.651Z,96.31
2018-02-02T05:20:55.681Z,96.12
2018-02-02T05:21:55.787Z,95.55
2018-02-02T05:22:55.741Z,96.31
2018-02-02T05:23:55.768Z,96.50
2018-02-02T05:24:55.795Z,96.21
2018-02-02T05:25:55.827Z,96.78
2018-02-02T05:26:55.858Z,96.12
2018-02-02T05:27:55.887Z,96.40
2018-02-02T05:28:55.916Z,95.83
2018-02-02T05:29:55.946Z,95.74
2018-02-02T05:30:55.977Z,95.83
2018-02-02T05:31:56.004Z,96.69
2018-02-02T05:32:56.038Z,95.36
2018-02-02T05:33:56.119Z,96.40
2018-02-02T05:34:56.091Z,96.50
2018-02-02T05:35:56.122Z,96.12
2018-02-02T05:36:56.152Z,96.02
2018-02-02T05:37:56.181Z,96.59
2018-02-02T05:38:56.214Z,95.45
2018-02-02T05:39:56.243Z,96.02
2018-02-02T05:40:56.357Z,95.83
2018-02-02T05:41:56.300Z,95.45
2018-02-02T05:42:56.330Z,95.45
2018-02-02T05:43:56.358Z,95.55
2018-02-02T05:44:56.389Z,95.45
2018-02-02T05:45:56.419Z,95.55
2018-02-02T05:46:56.450Z,96.40
2018-02-02T05:47:56.537Z,95.55
2018-02-02T05:48:56.510Z,95.55
2018-02-02T05:49:56.539Z,95.74
2018-02-02T05:50:56.570Z,95.64
2018-02-02T05:51:56.598Z,95.64
2018-02-02T05:52:56.642Z,95.55
2018-02-02T05:53:56.656Z,96.21
2018-02-02T05:54:56.688Z,96.12
2018-02-02T05:55:56.718Z,96.12
2018-02-02T05:56:56.744Z,95.83
2018-02-02T05:57:56.894Z,95.93
2018-02-02T05:58:56.802Z,95.64
2018-02-02T05:59:56.836Z,95.74
2018-02-02T06:00:56.865Z,96.02
2018-02-02T06:01:56.950Z,96.02
2018-02-02T06:03:56.953Z,95.55
2018-02-02T06:04:56.981Z,95.74
2018-02-02T06:05:57.012Z,95.74
2018-02-02T06:06:57.041Z,95.45
2018-02-02T06:07:57.073Z,96.21
2018-02-02T06:08:57.100Z,95.83
2018-02-02T06:09:57.131Z,95.83
2018-02-02T06:10:57.162Z,95.55
2018-02-02T06:11:57.191Z,95.74
2018-02-02T06:12:57.427Z,95.45
2018-02-02T06:13:57.251Z,95.55
2018-02-02T06:14:57.331Z,96.02
2018-02-02T06:15:57.313Z,96.02
2018-02-02T06:16:57.337Z,95.83
2018-02-02T06:17:57.367Z,95.64
2018-02-02T06:18:57.399Z,95.64
2018-02-02T06:19:57.649Z,95.64
2018-02-02T06:20:57.944Z,96.31
2018-02-02T06:21:57.918Z,96.50
2018-02-02T06:22:57.528Z,95.74
2018-02-02T06:23:57.556Z,95.74
2018-02-02T06:24:57.575Z,95.55
2018-02-02T06:25:58.024Z,95.45
2018-02-02T06:26:57.687Z,96.12
2018-02-02T06:27:57.678Z,96.02
2018-02-02T06:28:57.693Z,95.36
2018-02-02T06:29:57.730Z,96.59
2018-02-02T06:30:57.763Z,96.21
2018-02-02T06:31:57.784Z,96.31
2018-02-02T06:32:58.127Z,96.59
2018-02-02T06:33:57.914Z,96.50
2018-02-02T06:34:57.875Z,96.31
2018-02-02T06:35:57.905Z,96.78
2018-02-02T06:36:57.931Z,96.59
2018-02-02T06:37:57.974Z,96.12
2018-02-02T06:38:57.990Z,96.69
2018-02-02T06:39:58.031Z,96.31
2018-02-02T06:40:58.069Z,96.78
2018-02-02T06:41:58.079Z,96.59
2018-02-02T06:42:58.110Z,96.69
2018-02-02T06:43:58.137Z,96.50
2018-02-02T06:44:58.167Z,96.21
2018-02-02T06:45:58.198Z,96.50
2018-02-02T06:46:58.231Z,96.78
2018-02-02T06:48:58.286Z,96.31
2018-02-02T06:49:58.317Z,96.69
2018-02-02T06:50:58.346Z,96.40
2018-02-02T06:51:58.384Z,96.50
2018-02-02T06:52:58.406Z,96.78
2018-02-02T06:53:58.436Z,96.78
2018-02-02T06:54:58.467Z,96.78
2018-02-02T06:55:58.499Z,96.78
2018-02-02T06:56:58.527Z,96.21
2018-02-02T06:57:58.617Z,96.21
2018-02-02T06:58:58.586Z,96.31
2018-02-02T06:59:58.616Z,96.69
2018-02-02T07:00:58.646Z,96.92
2018-02-02T07:01:58.677Z,96.88
2018-02-02T07:02:58.703Z,96.02
2018-02-02T07:03:58.738Z,96.45
2018-02-02T07:04:58.761Z,96.26
2018-02-02T07:05:58.792Z,95.50
2018-02-02T07:06:58.837Z,96.26
2018-02-02T07:07:58.852Z,95.69
2018-02-02T07:08:58.881Z,95.98
2018-02-02T07:09:58.912Z,95.98
2018-02-02T07:10:59.255Z,95.60
2018-02-02T07:11:58.974Z,95.79
2018-02-02T07:12:58.999Z,95.79
2018-02-02T07:13:59.031Z,95.50
2018-02-02T07:14:59.063Z,95.88
2018-02-02T07:15:59.090Z,95.41
2018-02-02T07:16:59.255Z,96.07
2018-02-02T07:17:59.194Z,96.55
2018-02-02T07:18:59.180Z,96.73
2018-02-02T07:19:59.209Z,97.11
2018-02-02T07:20:59.241Z,96.83
2018-02-02T07:21:59.270Z,98.35
2018-02-02T07:22:59.302Z,97.63
2018-02-02T07:23:59.330Z,98.06
2018-02-02T07:24:59.358Z,98.06
2018-02-02T07:25:59.402Z,98.30
2018-02-02T07:26:59.473Z,99.24
2018-02-02T07:27:59.447Z,99.71
2018-02-02T07:28:59.478Z,99.99
2018-02-02T07:29:59.506Z,99.99
2018-02-02T07:30:59.537Z,99.99
2018-02-02T07:31:59.567Z,99.99
2018-02-02T07:32:59.597Z,99.99
2018-02-02T07:33:59.697Z,99.99
2018-02-02T07:34:59.659Z,99.99
2018-02-02T07:35:59.684Z,99.99
2018-02-02T07:36:59.712Z,99.99
2018-02-02T07:37:59.741Z,99.99
2018-02-02T07:38:59.777Z,99.99
2018-02-02T07:39:59.802Z,99.99
2018-02-02T07:40:59.832Z,99.99
2018-02-02T07:41:59.863Z,99.99
2018-02-02T07:42:59.948Z,99.99
2018-02-02T07:43:59.923Z,99.99
2018-02-02T07:44:59.950Z,99.99
2018-02-02T07:45:59.983Z,99.99
2018-02-02T07:47:00.025Z,99.99
2018-02-02T07:48:00.044Z,99.99
2018-02-02T07:49:00.068Z,99.99
2018-02-02T07:50:00.107Z,99.99
2018-02-02T07:51:00.133Z,99.99
2018-02-02T07:52:00.159Z,99.99
2018-02-02T07:53:00.190Z,99.99
2018-02-02T07:54:00.216Z,99.99
2018-02-02T07:55:00.248Z,99.99
2018-02-02T07:56:00.275Z,99.99
2018-02-02T07:57:00.310Z,99.99
2018-02-02T07:58:00.369Z,99.99
2018-02-02T07:59:00.368Z,99.99
2018-02-02T08:00:00.396Z,99.99
2018-02-02T08:01:00.425Z,99.99
2018-02-02T08:02:00.458Z,99.99
2018-02-02T08:03:00.536Z,99.99
2018-02-02T08:04:00.536Z,99.99
2018-02-02T08:05:00.546Z,99.99
2018-02-02T08:06:00.571Z,99.99
2018-02-02T08:07:00.601Z,99.99
2018-02-02T08:08:00.631Z,99.99
2018-02-02T08:09:00.669Z,99.99
2018-02-02T08:10:01.034Z,99.99
2018-02-02T08:11:00.730Z,99.99
2018-02-02T08:12:00.750Z,99.99
2018-02-02T08:13:00.778Z,99.99
2018-02-02T08:14:00.809Z,99.99
2018-02-02T08:15:00.839Z,99.99
2018-02-02T08:16:00.869Z,99.99
2018-02-02T08:17:00.896Z,99.99
2018-02-02T08:18:00.981Z,99.99
2018-02-02T08:19:00.958Z,99.99
2018-02-02T08:20:00.988Z,99.99
2018-02-02T08:21:01.017Z,99.99
2018-02-02T08:22:01.048Z,99.99
2018-02-02T08:23:01.092Z,99.99
2018-02-02T08:24:01.104Z,99.99
2018-02-02T08:25:01.134Z,99.99
2018-02-02T08:26:01.169Z,99.99
2018-02-02T08:27:01.198Z,99.99
2018-02-02T08:28:01.224Z,99.99
2018-02-02T08:29:01.259Z,99.99
2018-02-02T08:30:01.290Z,99.99
2018-02-02T08:31:01.313Z,99.99
2018-02-02T08:32:01.345Z,99.99
2018-02-02T08:33:01.382Z,99.99
2018-02-02T08:34:01.472Z,99.99
2018-02-02T08:35:01.435Z,99.99
2018-02-02T08:36:01.469Z,99.99
2018-02-02T08:37:01.495Z,99.99
2018-02-02T08:38:01.520Z,99.99
2018-02-02T08:39:01.550Z,99.99
2018-02-02T08:40:01.583Z,99.99
2018-02-02T08:41:01.670Z,99.99
2018-02-02T08:42:01.640Z,99.99
2018-02-02T08:43:01.675Z,99.99
2018-02-02T08:44:01.904Z,99.99
2018-02-02T08:45:01.731Z,99.99
2018-02-02T08:46:01.769Z,99.99
2018-02-02T08:47:01.789Z,99.99
2018-02-02T08:48:01.875Z,99.99
2018-02-02T08:49:01.851Z,99.99
2018-02-02T08:50:01.877Z,99.99
2018-02-02T08:51:01.980Z,99.99
2018-02-02T08:52:01.941Z,99.99
2018-02-02T08:53:01.983Z,99.99
2018-02-02T08:54:01.999Z,99.99
2018-02-02T08:55:02.032Z,99.99
2018-02-02T08:56:02.062Z,99.99
2018-02-02T08:57:02.092Z,99.99
2018-02-02T08:58:02.124Z,99.99
2018-02-02T08:59:02.149Z,99.99
2018-02-02T09:00:02.177Z,99.99
2018-02-02T09:01:02.208Z,99.99
2018-02-02T09:02:02.238Z,99.99
2018-02-02T09:03:02.274Z,99.99
2018-02-02T09:04:02.300Z,99.99
2018-02-02T09:05:02.327Z,99.99
2018-02-02T09:06:02.359Z,99.99
2018-02-02T09:07:02.388Z,99.99
2018-02-02T09:08:02.415Z,99.99
2018-02-02T09:09:02.446Z,99.99
2018-02-02T09:10:02.533Z,99.99
2018-02-02T09:11:02.507Z,99.99
2018-02-02T09:12:02.536Z,99.99
2018-02-02T09:13:02.596Z,99.99
2018-02-02T09:14:02.595Z,99.99
2018-02-02T09:15:02.627Z,99.99
2018-02-02T09:16:02.657Z,99.99
2018-02-02T09:17:02.685Z,99.99
2018-02-02T09:18:02.716Z,99.99
2018-02-02T09:19:02.745Z,99.99
2018-02-02T09:20:02.777Z,99.99
2018-02-02T09:21:02.804Z,99.99
2018-02-02T09:22:02.838Z,99.99
2018-02-02T09:23:02.868Z,99.99
2018-02-02T09:24:03.142Z,99.99
2018-02-02T09:25:02.925Z,99.99
2018-02-02T09:26:02.956Z,99.99
2018-02-02T09:27:03.043Z,99.99
2018-02-02T09:28:03.018Z,99.99
2018-02-02T09:29:03.069Z,99.99
2018-02-02T09:30:03.077Z,99.99
2018-02-02T09:31:03.107Z,99.99
2018-02-02T09:32:03.148Z,99.99
2018-02-02T09:33:03.167Z,99.99
2018-02-02T09:34:03.266Z,99.99
2018-02-02T09:35:03.239Z,99.99
2018-02-02T09:36:03.257Z,99.99
2018-02-02T09:37:03.288Z,99.99
2018-02-02T09:38:03.317Z,99.99
2018-02-02T09:39:03.348Z,99.99
2018-02-02T09:40:03.381Z,99.99
2018-02-02T09:41:03.408Z,99.99
2018-02-02T09:42:03.440Z,99.53
2018-02-02T09:43:03.469Z,99.53
2018-02-02T09:44:03.499Z,99.72
2018-02-02T09:45:03.532Z,99.72
2018-02-02T09:46:03.559Z,99.63
2018-02-02T09:47:03.597Z,99.99
2018-02-02T09:48:03.621Z,99.99
2018-02-02T09:49:03.651Z,99.99
2018-02-02T09:50:03.682Z,99.72
2018-02-02T09:51:03.710Z,98.96
2018-02-02T09:52:03.745Z,99.63
2018-02-02T09:53:03.807Z,99.91
2018-02-02T09:54:03.803Z,98.68
2018-02-02T09:55:03.835Z,98.68
2018-02-02T09:56:03.874Z,99.15
2018-02-02T09:57:03.900Z,99.99
2018-02-02T09:58:03.925Z,99.99
2018-02-02T09:59:03.957Z,99.72
2018-02-02T10:00:04.001Z,99.34
2018-02-02T10:01:04.021Z,99.25
2018-02-02T10:03:04.081Z,99.15
2018-02-02T10:04:04.110Z,99.63
2018-02-02T10:05:04.140Z,98.49
2018-02-02T10:06:04.170Z,99.34
2018-02-02T10:07:04.199Z,99.34
2018-02-02T10:08:04.230Z,98.39
2018-02-02T10:09:04.262Z,98.49
2018-02-02T10:10:04.393Z,99.06
2018-02-02T10:11:04.320Z,98.87
2018-02-02T10:12:04.363Z,98.39
2018-02-02T10:13:04.382Z,98.30
2018-02-02T10:14:04.411Z,98.58
2018-02-02T10:15:04.444Z,98.39
2018-02-02T10:16:04.474Z,98.39
2018-02-02T10:17:04.622Z,98.87
2018-02-02T10:18:04.534Z,98.68
2018-02-02T10:19:04.565Z,98.87
2018-02-02T10:20:04.655Z,98.58
2018-02-02T10:21:04.625Z,98.39
2018-02-02T10:22:04.662Z,98.21
2018-02-02T10:23:04.744Z,98.02
2018-02-02T10:24:04.718Z,97.83
2018-02-02T10:25:04.748Z,97.83
2018-02-02T10:26:04.785Z,98.02
2018-02-02T10:27:04.814Z,98.25
2018-02-02T10:28:04.844Z,97.40
2018-02-02T10:29:04.872Z,97.50
2018-02-02T10:30:04.902Z,96.31
2018-02-02T10:31:04.934Z,96.17
2018-02-02T10:32:04.990Z,96.92
2018-02-02T10:33:04.994Z,96.64
2018-02-02T10:34:05.077Z,96.83
2018-02-02T10:35:05.059Z,96.50
2018-02-02T10:36:05.088Z,95.55
2018-02-02T10:37:05.117Z,96.41
2018-02-02T10:38:05.153Z,96.50
2018-02-02T10:39:05.181Z,96.59
2018-02-02T10:40:05.213Z,96.41
2018-02-02T10:41:05.295Z,96.83
2018-02-02T10:42:05.275Z,96.36
2018-02-02T10:43:05.305Z,96.55
2018-02-02T10:44:05.336Z,96.55
2018-02-02T10:45:05.366Z,96.26
2018-02-02T10:46:05.420Z,96.55
2018-02-02T10:47:05.425Z,96.64
2018-02-02T10:48:05.456Z,97.12
2018-02-02T10:49:05.486Z,95.69
2018-02-02T10:50:05.520Z,95.69
2018-02-02T10:51:05.560Z,95.50
2018-02-02T10:52:05.581Z,95.60
2018-02-02T10:53:05.638Z,95.98
2018-02-02T10:54:05.646Z,94.74
2018-02-02T10:55:05.675Z,94.65
2018-02-02T10:56:05.710Z,93.99
2018-02-02T10:57:05.737Z,93.99
2018-02-02T10:58:05.767Z,94.65
2018-02-02T10:59:05.798Z,94.56
2018-02-02T11:00:05.827Z,94.56
2018-02-02T11:01:05.863Z,94.65
2018-02-02T11:02:05.896Z,94.56
2018-02-02T11:03:05.924Z,93.94
2018-02-02T11:04:05.953Z,93.70
2018-02-02T11:05:05.985Z,94.27
2018-02-02T11:06:06.013Z,94.51
2018-02-02T11:07:06.048Z,94.37
2018-02-02T11:08:06.078Z,93.75
2018-02-02T11:09:06.108Z,93.70
2018-02-02T11:10:06.191Z,94.08
2018-02-02T11:11:06.172Z,93.41
2018-02-02T11:12:06.203Z,93.61
2018-02-02T11:13:06.233Z,93.32
2018-02-02T11:14:06.268Z,93.23
2018-02-02T11:15:06.300Z,94.37
2018-02-02T11:16:06.329Z,93.89
2018-02-02T11:17:06.425Z,93.70
2018-02-02T11:18:06.390Z,94.18
2018-02-02T11:19:06.420Z,94.37
2018-02-02T11:20:06.456Z,93.61
2018-02-02T11:21:06.482Z,94.08
2018-02-02T11:22:06.514Z,93.61
2018-02-02T11:23:06.545Z,93.61
2018-02-02T11:24:06.575Z,94.08
2018-02-02T11:25:06.610Z,94.46
2018-02-02T11:26:06.637Z,95.41
2018-02-02T11:27:06.671Z,94.46
2018-02-02T11:28:06.773Z,94.18
2018-02-02T11:29:06.730Z,94.08
2018-02-02T11:30:06.823Z,93.99
2018-02-02T11:31:06.793Z,94.27
2018-02-02T11:32:06.823Z,94.56
2018-02-02T11:33:06.872Z,94.84
2018-02-02T11:34:06.901Z,94.37
2018-02-02T11:35:06.922Z,94.65
2018-02-02T11:36:06.952Z,95.03
2018-02-02T11:37:06.981Z,94.93
2018-02-02T11:38:07.025Z,95.22
2018-02-02T11:39:07.042Z,94.93
2018-02-02T11:40:07.072Z,94.84
2018-02-02T11:41:07.116Z,94.84
2018-02-02T11:42:07.143Z,94.65
2018-02-02T11:43:07.165Z,94.56
2018-02-02T11:44:07.199Z,94.56
2018-02-02T11:45:07.229Z,93.80
2018-02-02T11:46:07.262Z,93.89
2018-02-02T11:47:07.293Z,93.89
2018-02-02T11:48:07.324Z,93.80
2018-02-02T11:49:07.354Z,94.27
2018-02-02T11:50:07.398Z,94.46
2018-02-02T11:51:07.414Z,93.70
2018-02-02T11:52:07.446Z,93.61
2018-02-02T11:53:07.739Z,93.61
2018-02-02T11:54:07.508Z,93.70
2018-02-02T11:55:07.539Z,93.61
2018-02-02T11:56:07.589Z,93.61
2018-02-02T11:57:07.774Z,93.23
2018-02-02T11:58:07.637Z,94.18
2018-02-02T11:59:07.665Z,94.18
2018-02-02T12:00:07.791Z,93.80
2018-02-02T12:01:07.725Z,93.70
2018-02-02T12:02:07.863Z,93.89
2018-02-02T12:03:07.969Z,93.23
2018-02-02T12:04:07.835Z,93.80
2018-02-02T12:05:07.858Z,93.32
2018-02-02T12:06:07.882Z,93.70
2018-02-02T12:07:07.911Z,94.37
2018-02-02T12:08:07.947Z,93.61
2018-02-02T12:09:07.982Z,93.89
2018-02-02T12:10:08.006Z,93.61
2018-02-02T12:11:08.040Z,93.70
2018-02-02T12:12:08.068Z,93.94
2018-02-02T12:13:08.112Z,92.71
2018-02-02T12:14:08.129Z,92.33
2018-02-02T12:15:08.222Z,92.04
2018-02-02T12:16:08.212Z,91.28
2018-02-02T12:17:08.261Z,90.81
2018-02-02T12:18:08.311Z,90.14
2018-02-02T12:19:08.288Z,89.95
2018-02-02T12:20:08.319Z,90.81
2018-02-02T12:21:08.353Z,90.62
2018-02-02T12:22:08.384Z,90.52
2018-02-02T12:23:08.414Z,90.62
2018-02-02T12:24:08.558Z,90.14
2018-02-02T12:25:08.494Z,89.67
2018-02-02T12:26:08.515Z,89.76
2018-02-02T12:27:08.554Z,88.91
2018-02-02T12:28:08.568Z,89.58
2018-02-02T12:29:08.602Z,90.33
2018-02-02T12:30:08.642Z,89.48
2018-02-02T12:31:08.669Z,89.39
2018-02-02T12:32:08.722Z,89.10
2018-02-02T12:33:08.733Z,89.48
2018-02-02T12:34:08.794Z,89.67
2018-02-02T12:35:08.789Z,90.14
2018-02-02T12:36:08.894Z,90.81
2018-02-02T12:37:08.853Z,90.14
2018-02-02T12:38:08.885Z,90.81
2018-02-02T12:39:08.926Z,91.28
2018-02-02T12:40:08.950Z,91.38
2018-02-02T12:41:08.988Z,91.28
2018-02-02T12:42:09.014Z,90.62
2018-02-02T12:43:09.167Z,90.43
2018-02-02T12:44:09.075Z,91.38
2018-02-02T12:45:09.110Z,91.28
2018-02-02T12:46:09.141Z,91.38
2018-02-02T12:47:09.172Z,91.66
2018-02-02T12:48:09.203Z,91.28
2018-02-02T12:49:09.244Z,91.19
2018-02-02T12:50:09.271Z,90.71
2018-02-02T12:51:09.295Z,90.52
2018-02-02T12:52:09.327Z,90.81
2018-02-02T12:53:09.358Z,90.33
2018-02-02T12:54:09.393Z,90.33
2018-02-02T12:55:09.422Z,90.90
2018-02-02T12:56:09.452Z,90.52